Pearcot, Washington
Current Conditions -  °F | °C
As of 9:55 AM on Monday 22 Dec 2014 (Local Time) from KEAT Reporting Station
Clear Clear  
Wind Chill: 39°   Ceiling: Unl
Heat Index: 46°   Visibility: 10mi
Dew Point: 27°   Wind: 18mph
Humidity: 47%   Direction: 300°WNW
Pressure: 30.23"   Gusts: NA
Location:  47.3635°N, 120.348°W
Report Text: KEAT 221755Z AUTO 30016KT 10SM CLR 08/M03 A3023 RMK AO2 SLP243 T00781028 10083 20033 51024
Loading
Personal Weather Stations






























Interactive Weather Map New forecast layout! Learn more

10-Day Weather Forecast

Advertisements
Track Severe Weather on mobile